createdAt,value
2018-08-11T00:01:39.093Z,69.40
2018-08-11T00:04:07.589Z,69.10
2018-08-11T00:06:36.052Z,68.90
2018-08-11T00:09:07.348Z,68.70
2018-08-11T00:11:35.727Z,69.00
2018-08-11T00:14:04.143Z,69.50
2018-08-11T00:16:33.562Z,69.30
2018-08-11T00:19:02.053Z,69.60
2018-08-11T00:21:30.559Z,70.00
2018-08-11T00:23:58.975Z,69.80
2018-08-11T00:26:28.608Z,69.60
2018-08-11T00:28:57.085Z,69.90
2018-08-11T00:31:25.579Z,70.00
2018-08-11T00:33:54.535Z,69.80
2018-08-11T00:36:23.070Z,69.50
2018-08-11T00:38:51.526Z,70.30
2018-08-11T00:41:20.049Z,70.80
2018-08-11T00:43:48.533Z,70.50
2018-08-11T00:46:17.025Z,70.50
2018-08-11T00:48:45.557Z,70.40
2018-08-11T00:51:14.079Z,70.40
2018-08-11T00:53:42.565Z,70.20
2018-08-11T00:56:11.127Z,70.30
2018-08-11T00:58:39.555Z,70.40
2018-08-11T01:01:07.983Z,70.70
2018-08-11T01:03:36.407Z,70.60
2018-08-11T01:06:04.887Z,71.10
2018-08-11T01:08:33.292Z,70.50
2018-08-11T01:11:01.842Z,70.70
2018-08-11T01:13:30.239Z,70.70
2018-08-11T01:15:58.702Z,70.70
2018-08-11T01:18:27.144Z,70.30
2018-08-11T01:20:55.680Z,70.10
2018-08-11T01:23:24.084Z,70.10
2018-08-11T01:25:52.511Z,70.00
2018-08-11T01:28:20.963Z,69.90
2018-08-11T01:30:49.442Z,69.70
2018-08-11T01:33:17.854Z,70.00
2018-08-11T01:35:46.282Z,69.80
2018-08-11T01:38:14.695Z,70.00
2018-08-11T01:40:43.138Z,69.80
2018-08-11T01:43:11.870Z,70.00
2018-08-11T01:45:40.296Z,69.90
2018-08-11T01:48:08.723Z,69.80
2018-08-11T01:50:37.086Z,69.60
2018-08-11T01:53:05.416Z,69.50
2018-08-11T01:55:34.215Z,69.80
2018-08-11T01:58:02.592Z,69.50
2018-08-11T02:00:30.947Z,69.60
2018-08-11T02:02:59.283Z,70.10
2018-08-11T02:05:27.664Z,71.90
2018-08-11T02:07:56.023Z,75.20
2018-08-11T02:10:25.303Z,76.70
2018-08-11T02:12:53.786Z,78.50
2018-08-11T02:15:22.981Z,80.30
2018-08-11T02:17:51.454Z,81.40
2018-08-11T02:20:20.313Z,82.00
2018-08-11T02:22:49.697Z,80.40
2018-08-11T02:25:18.494Z,82.00
2018-08-11T02:27:46.872Z,83.50
2018-08-11T02:30:16.548Z,84.20
2018-08-11T02:32:45.001Z,85.60
2018-08-11T02:35:14.007Z,85.90
2018-08-11T02:37:42.579Z,87.20
2018-08-11T02:40:12.432Z,87.00
2018-08-11T02:42:40.835Z,88.70
2018-08-11T02:45:11.043Z,88.50
2018-08-11T02:47:39.495Z,87.20
2018-08-11T02:50:09.416Z,87.20
2018-08-11T02:52:38.001Z,88.20
2018-08-11T02:55:06.640Z,87.60
2018-08-11T02:57:35.135Z,86.70
2018-08-11T03:00:03.672Z,87.30
2018-08-11T03:02:32.253Z,88.30
2018-08-11T03:05:00.528Z,87.70
2018-08-11T03:07:28.934Z,88.10
2018-08-11T03:09:57.369Z,88.20
2018-08-11T03:12:25.870Z,88.30
2018-08-11T03:14:54.379Z,89.50
2018-08-11T03:17:22.867Z,89.50
2018-08-11T03:19:54.160Z,90.10
2018-08-11T03:22:22.590Z,90.70
2018-08-11T03:24:51.056Z,90.20
2018-08-11T03:27:19.467Z,89.60
2018-08-11T03:29:47.863Z,89.00
2018-08-11T03:32:16.290Z,89.30
2018-08-11T03:34:44.695Z,90.30
2018-08-11T03:37:13.159Z,89.20
2018-08-11T03:39:41.568Z,90.00
2018-08-11T03:42:10.044Z,90.30
2018-08-11T03:44:38.459Z,90.30
2018-08-11T03:47:06.901Z,89.90
2018-08-11T03:49:35.315Z,90.30
2018-08-11T03:52:03.807Z,91.20
2018-08-11T03:54:32.211Z,91.30
2018-08-11T03:57:00.631Z,91.90
2018-08-11T03:59:29.115Z,93.70
2018-08-11T04:01:57.574Z,92.20
2018-08-11T04:04:25.977Z,93.20
2018-08-11T04:06:54.411Z,92.90
2018-08-11T04:09:29.470Z,92.90
2018-08-11T04:11:57.914Z,92.70
2018-08-11T04:14:26.347Z,92.70
2018-08-11T04:16:54.783Z,91.80
2018-08-11T04:19:23.299Z,91.30
2018-08-11T04:21:52.796Z,91.00
2018-08-11T04:24:22.257Z,91.70
2018-08-11T04:26:50.792Z,91.10
2018-08-11T04:29:19.276Z,91.00
2018-08-11T04:31:47.765Z,89.80
2018-08-11T04:34:16.275Z,90.90
2018-08-11T04:36:44.767Z,90.70
2018-08-11T04:39:13.183Z,91.00
2018-08-11T04:41:41.590Z,91.30
2018-08-11T04:44:10.063Z,91.10
2018-08-11T04:46:38.565Z,91.30
2018-08-11T04:49:06.989Z,91.80
2018-08-11T04:51:35.428Z,91.70
2018-08-11T04:54:03.962Z,91.70
2018-08-11T04:56:32.382Z,91.40
2018-08-11T04:59:00.791Z,91.90
2018-08-11T05:01:29.218Z,92.40
2018-08-11T05:03:57.652Z,91.50
2018-08-11T05:06:26.086Z,92.40
2018-08-11T05:08:54.482Z,92.60
2018-08-11T05:11:22.895Z,92.60
2018-08-11T05:13:51.340Z,92.60
2018-08-11T05:16:19.799Z,91.60
2018-08-11T05:18:48.202Z,92.40
2018-08-11T05:21:16.628Z,91.90
2018-08-11T05:23:45.139Z,92.60
2018-08-11T05:26:13.631Z,92.20
2018-08-11T05:28:42.071Z,92.40
2018-08-11T05:31:10.520Z,92.10
2018-08-11T05:33:38.915Z,92.10
2018-08-11T05:36:07.703Z,91.80
2018-08-11T05:38:36.528Z,92.40
2018-08-11T05:41:04.934Z,92.00
2018-08-11T05:43:33.384Z,91.90
2018-08-11T05:46:01.847Z,92.00
2018-08-11T05:48:30.294Z,92.70
2018-08-11T05:50:58.686Z,92.30
2018-08-11T05:53:27.114Z,91.50
2018-08-11T05:55:55.506Z,91.70
2018-08-11T05:58:23.951Z,91.50
2018-08-11T06:00:52.365Z,90.90
2018-08-11T06:03:20.808Z,91.50
2018-08-11T06:05:49.247Z,91.90
2018-08-11T06:08:17.659Z,92.20
2018-08-11T06:10:46.071Z,91.70
2018-08-11T06:13:14.526Z,91.10
2018-08-11T06:15:42.950Z,91.00
2018-08-11T06:18:11.394Z,91.10
2018-08-11T06:20:39.819Z,91.30
2018-08-11T06:23:08.247Z,91.10
2018-08-11T06:25:36.686Z,90.60
2018-08-11T06:28:05.202Z,90.80
2018-08-11T06:30:33.593Z,90.70
2018-08-11T06:33:02.079Z,90.50
2018-08-11T06:35:30.521Z,90.20
2018-08-11T06:37:58.943Z,89.50
2018-08-11T06:40:27.400Z,89.00
2018-08-11T06:42:55.783Z,89.30
2018-08-11T06:45:24.206Z,89.30
2018-08-11T06:47:52.644Z,88.30
2018-08-11T06:50:21.129Z,88.30
2018-08-11T06:52:49.568Z,87.80
2018-08-11T06:55:17.999Z,86.90
2018-08-11T06:57:46.430Z,86.80
2018-08-11T07:00:14.895Z,85.20
2018-08-11T07:02:43.316Z,84.90
2018-08-11T07:05:11.724Z,83.60
2018-08-11T07:07:40.163Z,83.90
2018-08-11T07:10:08.631Z,83.50
2018-08-11T07:12:37.144Z,84.50
2018-08-11T07:15:06.253Z,83.80
2018-08-11T07:17:34.695Z,83.30
2018-08-11T07:20:03.143Z,82.40
2018-08-11T07:22:31.622Z,81.00
2018-08-11T07:25:00.040Z,81.00
2018-08-11T07:27:28.482Z,80.70
2018-08-11T07:29:56.881Z,81.40
2018-08-11T07:32:25.295Z,80.90
2018-08-11T07:34:53.719Z,80.40
2018-08-11T07:37:22.163Z,78.20
2018-08-11T07:39:50.590Z,77.40
2018-08-11T07:42:19.034Z,76.10
2018-08-11T07:44:47.453Z,76.50
2018-08-11T07:47:15.828Z,76.10
2018-08-11T07:49:44.196Z,77.10
2018-08-11T07:52:12.546Z,74.50
2018-08-11T07:54:40.911Z,75.40
2018-08-11T07:57:09.270Z,75.30
2018-08-11T07:59:37.630Z,74.90
2018-08-11T08:02:06.008Z,74.40
2018-08-11T08:04:34.376Z,75.50
2018-08-11T08:07:02.738Z,76.00
2018-08-11T08:09:31.091Z,75.00
2018-08-11T08:11:59.423Z,74.10
2018-08-11T08:14:27.799Z,74.00
2018-08-11T08:16:56.154Z,71.90
2018-08-11T08:19:24.504Z,71.20
2018-08-11T08:21:52.839Z,69.60
2018-08-11T08:24:21.182Z,66.70
2018-08-11T08:26:49.601Z,66.70
2018-08-11T08:29:17.935Z,67.70
2018-08-11T08:31:46.282Z,67.60
2018-08-11T08:34:14.648Z,68.30
2018-08-11T08:36:42.997Z,69.20
2018-08-11T08:39:12.463Z,67.90
2018-08-11T08:41:41.168Z,64.70
2018-08-11T08:44:09.873Z,65.20
2018-08-11T08:46:38.214Z,65.80
2018-08-11T08:49:06.591Z,65.50
2018-08-11T08:51:34.920Z,66.60
2018-08-11T08:54:03.299Z,65.80
2018-08-11T08:56:31.655Z,64.20
2018-08-11T08:59:00.042Z,64.90
2018-08-11T09:01:28.431Z,65.40
2018-08-11T09:03:56.783Z,64.70
2018-08-11T09:06:25.115Z,63.20
2018-08-11T09:08:53.475Z,61.40
2018-08-11T09:11:21.864Z,62.30
2018-08-11T09:13:50.202Z,62.10
2018-08-11T09:16:18.556Z,60.70
2018-08-11T09:18:46.898Z,60.60
2018-08-11T09:21:15.231Z,61.80
2018-08-11T09:23:43.579Z,60.70
2018-08-11T09:26:11.912Z,59.80
2018-08-11T09:28:40.295Z,58.90
2018-08-11T09:31:08.633Z,56.90
2018-08-11T09:33:36.982Z,56.40
2018-08-11T09:36:05.324Z,56.30
2018-08-11T09:38:33.719Z,55.80
2018-08-11T09:41:02.038Z,56.80
2018-08-11T09:43:30.411Z,56.20
2018-08-11T09:45:58.867Z,56.10
2018-08-11T09:48:27.275Z,56.70
2018-08-11T09:50:55.718Z,56.70
2018-08-11T09:53:24.139Z,54.80
2018-08-11T09:55:52.578Z,56.20
2018-08-11T09:58:21.028Z,55.70
2018-08-11T10:00:53.670Z,55.10
2018-08-11T10:03:22.379Z,56.40
2018-08-11T10:05:50.902Z,55.40
2018-08-11T10:08:19.326Z,56.20
2018-08-11T10:10:47.832Z,54.60
2018-08-11T10:13:16.935Z,52.80
2018-08-11T10:15:45.378Z,53.50
2018-08-11T10:18:13.798Z,52.50
2018-08-11T10:20:42.311Z,53.40
2018-08-11T10:23:10.722Z,55.00
2018-08-11T10:25:39.849Z,54.60
2018-08-11T10:28:08.272Z,56.10
2018-08-11T10:30:36.747Z,56.00
2018-08-11T10:33:05.160Z,55.60
2018-08-11T10:35:34.462Z,53.00
2018-08-11T10:38:03.298Z,52.60
2018-08-11T10:40:31.735Z,53.10
2018-08-11T10:43:00.150Z,53.00
2018-08-11T10:45:28.539Z,52.90
2018-08-11T10:47:56.892Z,52.50
2018-08-11T10:50:25.944Z,52.30
2018-08-11T10:52:54.380Z,52.40
2018-08-11T10:55:23.639Z,52.10
2018-08-11T10:57:52.105Z,51.30
2018-08-11T11:00:20.662Z,51.10
2018-08-11T11:02:49.094Z,53.00
2018-08-11T11:05:17.602Z,51.70
2018-08-11T11:07:46.181Z,53.00
2018-08-11T11:10:14.627Z,53.00
2018-08-11T11:12:43.235Z,53.50
2018-08-11T11:15:11.731Z,52.70
2018-08-11T11:17:40.605Z,54.00
2018-08-11T11:20:10.856Z,52.90
2018-08-11T11:22:39.198Z,53.10
2018-08-11T11:25:07.891Z,52.90
2018-08-11T11:27:36.215Z,52.60
2018-08-11T11:30:04.966Z,52.60
2018-08-11T11:32:33.311Z,52.40
2018-08-11T11:35:01.667Z,52.90
2018-08-11T11:37:30.031Z,53.50
2018-08-11T11:39:58.391Z,52.70
2018-08-11T11:42:26.715Z,53.20
2018-08-11T11:44:55.074Z,52.20
2018-08-11T11:47:23.561Z,53.30
2018-08-11T11:49:51.985Z,51.90
2018-08-11T11:52:20.392Z,51.80
2018-08-11T11:54:48.843Z,51.80
2018-08-11T11:57:17.267Z,51.30
2018-08-11T11:59:45.668Z,51.30
2018-08-11T12:02:14.115Z,50.30
2018-08-11T12:04:42.558Z,52.10
2018-08-11T12:07:11.023Z,51.40
2018-08-11T12:09:39.525Z,51.20
2018-08-11T12:12:08.020Z,50.40
2018-08-11T12:14:36.457Z,50.90
2018-08-11T12:18:08.380Z,50.30
2018-08-11T12:20:36.826Z,51.30
2018-08-11T12:23:05.347Z,52.20
2018-08-11T12:25:33.767Z,51.30
2018-08-11T12:28:02.177Z,51.80
2018-08-11T12:30:30.655Z,52.00
2018-08-11T12:32:59.250Z,50.10
2018-08-11T12:35:27.675Z,50.40
2018-08-11T12:37:56.138Z,50.90
2018-08-11T12:40:24.540Z,50.40
2018-08-11T12:42:52.948Z,50.50
2018-08-11T12:45:21.415Z,51.10
2018-08-11T12:47:49.843Z,50.00
2018-08-11T12:50:18.307Z,50.80
2018-08-11T12:52:53.359Z,50.40
2018-08-11T12:55:21.779Z,51.00
2018-08-11T12:57:50.192Z,50.80
2018-08-11T13:00:18.651Z,51.20
2018-08-11T13:02:47.069Z,51.60
2018-08-11T13:05:15.459Z,52.30
2018-08-11T13:07:44.123Z,52.10
2018-08-11T13:10:12.520Z,51.70
2018-08-11T13:12:40.940Z,52.40
2018-08-11T13:15:09.386Z,52.00
2018-08-11T13:17:37.800Z,51.40
2018-08-11T13:20:07.183Z,50.60
2018-08-11T13:22:35.659Z,50.70
2018-08-11T13:25:04.171Z,50.50
2018-08-11T13:27:32.610Z,51.40
2018-08-11T13:30:01.018Z,51.00
2018-08-11T13:32:29.478Z,52.30
2018-08-11T13:34:57.964Z,52.00
2018-08-11T13:37:26.379Z,51.70
2018-08-11T13:39:55.709Z,51.50
2018-08-11T13:42:24.226Z,52.10
2018-08-11T13:44:52.706Z,51.80
2018-08-11T13:47:23.909Z,51.30
2018-08-11T13:49:52.529Z,51.90
2018-08-11T13:52:21.219Z,50.40
2018-08-11T13:54:50.833Z,50.60
2018-08-11T13:57:19.396Z,51.40
2018-08-11T13:59:47.942Z,52.40
2018-08-11T14:02:16.628Z,51.00
2018-08-11T14:04:45.125Z,50.80
2018-08-11T14:07:13.648Z,51.30
2018-08-11T14:09:42.096Z,50.90
2018-08-11T14:12:10.907Z,51.10
2018-08-11T14:14:39.427Z,51.10
2018-08-11T14:17:07.948Z,49.90
2018-08-11T14:19:36.434Z,49.30
2018-08-11T14:22:04.927Z,49.30
2018-08-11T14:24:33.339Z,49.50
2018-08-11T14:27:01.755Z,49.40
2018-08-11T14:29:30.142Z,50.10
2018-08-11T14:31:58.558Z,50.20
2018-08-11T14:34:27.000Z,50.50
2018-08-11T14:36:55.428Z,50.30
2018-08-11T14:39:23.945Z,50.60
2018-08-11T14:41:52.386Z,49.60
2018-08-11T14:44:20.822Z,49.40
2018-08-11T14:46:49.250Z,50.00
2018-08-11T14:49:18.209Z,50.00
2018-08-11T14:51:47.113Z,49.30
2018-08-11T14:54:15.639Z,49.90
2018-08-11T14:56:44.972Z,49.00
2018-08-11T14:59:13.912Z,49.50
2018-08-11T15:01:42.393Z,50.10
2018-08-11T15:04:11.423Z,50.40
2018-08-11T15:06:39.862Z,50.40
2018-08-11T15:09:09.545Z,50.10
2018-08-11T15:11:37.975Z,50.60
2018-08-11T15:14:06.480Z,51.00
2018-08-11T15:16:35.073Z,51.10
2018-08-11T15:19:10.168Z,50.40
2018-08-11T15:21:38.658Z,50.30
2018-08-11T15:24:07.315Z,50.80
2018-08-11T15:26:36.022Z,50.90
2018-08-11T15:29:04.601Z,51.20
2018-08-11T15:31:33.122Z,50.30
2018-08-11T15:34:01.627Z,49.20
2018-08-11T15:36:30.200Z,49.70
2018-08-11T15:38:58.869Z,50.40
2018-08-11T15:41:27.406Z,50.30
2018-08-11T15:43:55.959Z,49.90
2018-08-11T15:46:24.544Z,50.00
2018-08-11T15:48:53.097Z,49.20
2018-08-11T15:51:21.618Z,50.20
2018-08-11T15:53:50.183Z,49.70
2018-08-11T15:56:19.611Z,50.10
2018-08-11T15:58:48.158Z,50.20
2018-08-11T16:01:16.679Z,49.70
2018-08-11T16:03:45.172Z,50.60
2018-08-11T16:06:13.575Z,50.10
2018-08-11T16:08:42.007Z,49.20
2018-08-11T16:11:11.337Z,49.90
2018-08-11T16:13:39.839Z,49.90
2018-08-11T16:16:08.246Z,50.10
2018-08-11T16:18:36.702Z,49.30
2018-08-11T16:21:05.131Z,50.00
2018-08-11T16:23:33.534Z,49.80
2018-08-11T16:26:02.077Z,50.10
2018-08-11T16:28:31.198Z,50.40
2018-08-11T16:31:00.187Z,50.20
2018-08-11T16:33:29.355Z,50.30
2018-08-11T16:35:58.352Z,50.80
2018-08-11T16:38:26.857Z,50.70
2018-08-11T16:40:55.379Z,51.10
2018-08-11T16:43:24.419Z,51.00
2018-08-11T16:45:52.832Z,50.80
2018-08-11T16:48:22.018Z,51.10
2018-08-11T16:50:50.395Z,50.60
2018-08-11T16:53:18.770Z,49.70
2018-08-11T16:55:47.389Z,50.60
2018-08-11T16:58:16.008Z,50.60
2018-08-11T17:00:44.883Z,50.10
2018-08-11T17:03:13.666Z,50.70
2018-08-11T17:05:42.907Z,50.40
2018-08-11T17:08:11.843Z,50.10
2018-08-11T17:10:41.214Z,51.10
2018-08-11T17:13:09.873Z,50.90
2018-08-11T17:15:38.442Z,51.40
2018-08-11T17:18:06.910Z,51.40
2018-08-11T17:20:35.378Z,51.20
2018-08-11T17:23:04.575Z,51.60
2018-08-11T17:25:34.001Z,52.20
2018-08-11T17:28:03.873Z,52.00
2018-08-11T17:30:33.387Z,51.80
2018-08-11T17:33:02.837Z,52.10
2018-08-11T17:35:31.321Z,51.60
2018-08-11T17:37:59.867Z,51.70
2018-08-11T17:40:28.543Z,52.00
2018-08-11T17:42:57.008Z,52.00
2018-08-11T17:45:25.788Z,52.00
2018-08-11T17:47:56.043Z,52.00
2018-08-11T17:50:25.764Z,51.80
2018-08-11T17:52:54.525Z,52.30
2018-08-11T17:55:23.133Z,52.20
2018-08-11T17:57:51.587Z,52.10
2018-08-11T18:00:22.082Z,52.40
2018-08-11T18:02:51.096Z,52.10
2018-08-11T18:05:20.294Z,52.40
2018-08-11T18:07:49.432Z,52.40
2018-08-11T18:10:18.605Z,52.40
2018-08-11T18:12:47.167Z,52.50
2018-08-11T18:15:15.774Z,52.40
2018-08-11T18:17:44.337Z,52.30
2018-08-11T18:20:13.041Z,52.70
2018-08-11T18:22:41.892Z,52.80
2018-08-11T18:25:10.447Z,52.90
2018-08-11T18:27:39.048Z,52.70
2018-08-11T18:30:08.373Z,53.00
2018-08-11T18:32:37.329Z,53.30
2018-08-11T18:35:07.184Z,53.50
2018-08-11T18:37:36.167Z,53.80
2018-08-11T18:40:05.665Z,53.90
2018-08-11T18:42:34.260Z,54.70
2018-08-11T18:45:02.912Z,54.50
2018-08-11T18:47:31.638Z,54.30
2018-08-11T18:50:00.207Z,54.80
2018-08-11T18:52:28.970Z,54.80
2018-08-11T18:54:57.754Z,55.50
2018-08-11T18:57:26.409Z,56.20
2018-08-11T18:59:55.049Z,56.60
2018-08-11T19:02:23.510Z,57.60
2018-08-11T19:04:52.037Z,58.10
2018-08-11T19:07:20.511Z,59.00
2018-08-11T19:09:49.067Z,59.00
2018-08-11T19:12:17.395Z,59.40
2018-08-11T19:14:45.897Z,59.90
2018-08-11T19:17:14.430Z,60.40
2018-08-11T19:19:43.805Z,60.80
2018-08-11T19:22:14.472Z,60.00
2018-08-11T19:24:43.630Z,61.10
2018-08-11T19:27:13.347Z,61.30
2018-08-11T19:29:42.293Z,61.30
2018-08-11T19:32:10.807Z,61.20
2018-08-11T19:34:41.003Z,60.60
2018-08-11T19:37:09.973Z,61.00
2018-08-11T19:39:38.870Z,61.40
2018-08-11T19:42:08.521Z,62.40
2018-08-11T19:44:37.436Z,63.20
2018-08-11T19:47:07.145Z,63.80
2018-08-11T19:49:39.951Z,64.10
2018-08-11T19:52:08.996Z,64.30
2018-08-11T19:54:45.575Z,64.80
2018-08-11T19:57:14.395Z,64.90
2018-08-11T19:59:43.496Z,65.40
2018-08-11T20:02:12.878Z,65.90
2018-08-11T20:04:41.911Z,65.90
2018-08-11T20:07:10.444Z,66.30
2018-08-11T20:09:41.830Z,66.40
2018-08-11T20:12:11.712Z,67.10
2018-08-11T20:14:40.437Z,67.10
2018-08-11T20:17:09.399Z,67.20
2018-08-11T20:19:38.168Z,67.20
2018-08-11T20:22:13.333Z,67.70
2018-08-11T20:24:42.424Z,67.90
2018-08-11T20:27:10.961Z,68.10
2018-08-11T20:29:40.840Z,68.10
2018-08-11T20:32:10.848Z,67.70
2018-08-11T20:34:40.014Z,68.40
2018-08-11T20:37:10.018Z,68.80
2018-08-11T20:39:38.741Z,69.00
2018-08-11T20:42:07.654Z,69.30
2018-08-11T20:44:36.241Z,70.00
2018-08-11T20:47:05.716Z,70.20
2018-08-11T20:49:34.325Z,70.10
2018-08-11T20:52:02.847Z,70.40
2018-08-11T20:54:34.378Z,70.60
2018-08-11T20:57:04.812Z,70.40
2018-08-11T20:59:35.647Z,70.20
2018-08-11T21:02:05.358Z,70.10
2018-08-11T21:04:34.319Z,70.30
2018-08-11T21:07:03.302Z,70.60
2018-08-11T21:09:33.060Z,70.70
2018-08-11T21:12:02.109Z,71.30
2018-08-11T21:14:30.614Z,70.90
2018-08-11T21:17:00.077Z,71.00
2018-08-11T21:19:28.919Z,71.30
2018-08-11T21:21:57.415Z,72.00
2018-08-11T21:24:25.849Z,72.00
2018-08-11T21:26:55.182Z,72.30
2018-08-11T21:29:23.652Z,72.50
2018-08-11T21:31:52.390Z,72.60
2018-08-11T21:34:21.924Z,72.40
2018-08-11T21:36:50.412Z,72.10
2018-08-11T21:39:19.558Z,72.60
2018-08-11T21:41:48.028Z,72.60
2018-08-11T21:44:17.185Z,73.00
2018-08-11T21:46:45.741Z,73.00
2018-08-11T21:49:14.199Z,72.60
2018-08-11T21:51:43.073Z,72.70
2018-08-11T21:54:11.524Z,72.90
2018-08-11T21:56:40.056Z,73.00
2018-08-11T21:59:08.519Z,73.40
2018-08-11T22:01:37.062Z,73.50
2018-08-11T22:04:06.715Z,73.80
2018-08-11T22:06:35.192Z,74.00
2018-08-11T22:09:03.848Z,73.80
2018-08-11T22:11:32.314Z,73.80
2018-08-11T22:14:00.739Z,74.50
2018-08-11T22:16:29.183Z,74.70
2018-08-11T22:18:57.681Z,74.70
2018-08-11T22:21:26.159Z,74.70
2018-08-11T22:23:54.702Z,75.00
2018-08-11T22:26:23.242Z,75.20
2018-08-11T22:28:51.687Z,75.40
2018-08-11T22:31:20.163Z,75.60
2018-08-11T22:33:48.920Z,75.20
2018-08-11T22:36:17.407Z,75.10
2018-08-11T22:38:45.830Z,74.70
2018-08-11T22:41:14.258Z,75.70
2018-08-11T22:43:42.683Z,75.70
2018-08-11T22:46:11.191Z,75.90
2018-08-11T22:48:39.633Z,75.80
2018-08-11T22:51:08.158Z,75.90
2018-08-11T22:53:36.631Z,76.10
2018-08-11T22:56:05.095Z,76.00
2018-08-11T22:58:33.551Z,76.10
2018-08-11T23:01:02.012Z,76.30
2018-08-11T23:03:30.483Z,76.10
2018-08-11T23:05:59.014Z,76.20
2018-08-11T23:08:27.446Z,76.20
2018-08-11T23:10:55.878Z,76.20
2018-08-11T23:13:24.594Z,76.20
2018-08-11T23:15:53.743Z,76.30
2018-08-11T23:18:22.222Z,76.50
2018-08-11T23:20:50.652Z,76.40
2018-08-11T23:23:19.075Z,76.80
2018-08-11T23:25:47.516Z,76.70
2018-08-11T23:28:16.015Z,76.50
2018-08-11T23:30:44.463Z,76.80
2018-08-11T23:33:12.919Z,76.80
2018-08-11T23:35:41.381Z,77.00
2018-08-11T23:38:09.899Z,77.00
2018-08-11T23:40:38.391Z,77.10
2018-08-11T23:43:07.239Z,77.10
2018-08-11T23:45:35.647Z,77.10
2018-08-11T23:48:04.247Z,76.50
2018-08-11T23:50:32.690Z,76.70
2018-08-11T23:53:01.104Z,76.70
2018-08-11T23:55:29.639Z,76.60
2018-08-11T23:57:58.104Z,76.00
